Terminal Aerodrome Forecast
Issued by NWS

Home | Current Version | Previous Version | Text Only | Print | Product List | Glossary On
Versions: 1 2 3 4 5 6 7 8 9 10 11 12 13 14 15 16 17 18 19 20 21 22
000
FTUS45 KTFX 021049 AAB
TAFCTB
TAF AMD
KCTB 021049Z 0211/0306 09014G24KT 3SM BR OVC003
      TEMPO 0211/0214 2SM SHRA BR SCT005 BKN015
     FM021500 07010KT P6SM -SHRA OVC005=

USA.gov is the U.S. government's official web portal to all federal, state and local government web resources and services.